Time;durP1;ratioP1;P1;durP2;ratioP2;P2;SDS_P1;SDS_P2;PMS_P1;PMS_P2;Temp;Humidity;BMP_temperature;BMP_pressure;BME280_temperature;BME280_humidity;BME280_pressure;Samples;Min_cycle;Max_cycle;Signal;HPM_P1;HPM_P2
2023/07/30 00:02:08;;;;;;;1.80;1.70;;;20.60;99.90;;;;;;5041056;28;20239;-71
2023/07/30 00:04:35;;;;;;;1.75;1.65;;;20.60;99.90;;;;;;5038048;28;20254;-72
2023/07/30 00:07:02;;;;;;;2.10;1.67;;;20.60;99.90;;;;;;5039152;28;20203;-73
2023/07/30 00:09:29;;;;;;;1.65;1.55;;;20.70;99.90;;;;;;5042923;28;20195;-73
2023/07/30 00:11:58;;;;;;;1.92;1.80;;;20.80;99.90;;;;;;5037960;28;20318;-71
2023/07/30 00:14:25;;;;;;;1.90;1.50;;;20.90;99.90;;;;;;5042303;28;20246;-73
2023/07/30 00:16:52;;;;;;;1.83;1.73;;;20.80;99.90;;;;;;5041403;28;21904;-73
2023/07/30 00:19:19;;;;;;;1.67;1.58;;;20.80;99.90;;;;;;5040586;28;20215;-73
2023/07/30 00:21:46;;;;;;;2.05;1.85;;;20.80;99.90;;;;;;5039722;28;20234;-71
2023/07/30 00:24:13;;;;;;;1.80;1.70;;;20.80;99.90;;;;;;5041320;28;20233;-71
2023/07/30 00:26:41;;;;;;;2.63;1.70;;;20.80;99.90;;;;;;5019543;28;20286;-75
2023/07/30 00:29:11;;;;;;;2.03;1.90;;;20.80;99.90;;;;;;5039922;28;20870;-73
2023/07/30 00:31:38;;;;;;;4.63;2.70;;;20.90;99.90;;;;;;5038812;28;20298;-72
2023/07/30 00:34:05;;;;;;;2.72;2.53;;;20.60;99.90;;;;;;5045811;28;20215;-73
2023/07/30 00:36:32;;;;;;;2.33;2.13;;;20.20;99.90;;;;;;5023314;28;20835;-73
2023/07/30 00:38:59;;;;;;;2.40;2.20;;;19.80;99.90;;;;;;5035576;28;20322;-72
2023/07/30 00:41:26;;;;;;;2.20;2.10;;;19.60;99.90;;;;;;5038226;28;20191;-74
2023/07/30 00:43:53;;;;;;;2.13;1.92;;;19.50;99.90;;;;;;5014203;28;20315;-72
2023/07/30 00:46:22;;;;;;;2.25;2.05;;;19.50;99.90;;;;;;5033961;28;20207;-73
2023/07/30 00:48:50;;;;;;;2.95;2.35;;;19.70;99.90;;;;;;5034979;28;20724;-73
2023/07/30 00:51:18;;;;;;;3.17;2.60;;;19.90;99.90;;;;;;5036376;28;20195;-73
2023/07/30 00:53:45;;;;;;;2.38;2.17;;;19.90;99.90;;;;;;5034037;28;20273;-73
2023/07/30 00:56:13;;;;;;;2.28;2.13;;;19.70;99.90;;;;;;5036081;28;20195;-72
2023/07/30 00:58:42;;;;;;;2.17;1.98;;;19.80;99.90;;;;;;5037472;28;20300;-74
2023/07/30 01:01:09;;;;;;;1.90;1.80;;;19.90;99.90;;;;;;5038268;28;20203;-74
2023/07/30 01:03:38;;;;;;;2.10;1.90;;;19.90;99.90;;;;;;5041064;28;20230;-73
2023/07/30 01:06:06;;;;;;;2.13;2.03;;;19.80;99.90;;;;;;5041639;28;20195;-75
2023/07/30 01:08:33;;;;;;;2.03;1.83;;;19.80;99.90;;;;;;5039258;28;20868;-73
2023/07/30 01:11:00;;;;;;;1.80;1.70;;;19.90;99.90;;;;;;5039921;28;20262;-74
2023/07/30 01:13:30;;;;;;;1.73;1.63;;;19.90;99.90;;;;;;5040181;28;20218;-73
2023/07/30 01:15:57;;;;;;;1.98;1.85;;;20.00;99.90;;;;;;5041254;28;20265;-73
2023/07/30 01:18:24;;;;;;;2.10;1.90;;;20.10;99.90;;;;;;5020927;28;20680;-72
2023/07/30 01:20:58;;;;;;;1.67;1.58;;;20.10;99.90;;;;;;5037635;28;20225;-72
2023/07/30 01:23:25;;;;;;;2.10;2.00;;;19.90;99.90;;;;;;5038347;28;20309;-73
2023/07/30 01:26:00;;;;;;;2.65;2.45;;;19.80;99.90;;;;;;5037325;28;20195;-74
2023/07/30 01:28:30;;;;;;;2.53;2.33;;;19.60;99.90;;;;;;5042614;28;20244;-74
2023/07/30 01:31:01;;;;;;;2.03;1.92;;;19.30;99.90;;;;;;5025895;28;20199;-74
2023/07/30 01:33:29;;;;;;;2.22;1.85;;;19.10;99.90;;;;;;5042297;28;20278;-73
2023/07/30 01:35:59;;;;;;;2.30;2.15;;;19.20;99.90;;;;;;5051223;28;20237;-74
2023/07/30 01:38:27;;;;;;;2.10;1.90;;;19.40;99.90;;;;;;5040355;28;20258;-74
2023/07/30 01:40:54;;;;;;;2.00;1.80;;;19.50;99.90;;;;;;5025291;28;20282;-74
2023/07/30 01:43:21;;;;;;;2.08;1.98;;;19.60;99.90;;;;;;5044155;28;20222;-74
2023/07/30 01:45:51;;;;;;;1.95;1.85;;;19.50;99.90;;;;;;5053474;28;20329;-73
2023/07/30 01:48:18;;;;;;;1.65;1.55;;;19.50;99.90;;;;;;5051193;28;20214;-73
2023/07/30 01:50:51;;;;;;;2.00;1.90;;;19.60;99.90;;;;;;5044433;28;20777;-72
2023/07/30 01:53:19;;;;;;;1.80;1.70;;;19.70;99.90;;;;;;5027131;28;20230;-73
2023/07/30 01:55:47;;;;;;;2.13;2.00;;;19.80;99.90;;;;;;5044612;28;20285;-74
2023/07/30 01:58:14;;;;;;;1.90;1.80;;;19.90;99.90;;;;;;5028974;28;20261;-75
2023/07/30 02:00:42;;;;;;;1.88;1.77;;;20.00;99.90;;;;;;5026009;28;20287;-74
2023/07/30 02:03:09;;;;;;;1.92;1.83;;;20.10;99.90;;;;;;5040914;28;20292;-73
2023/07/30 02:05:36;;;;;;;1.85;1.75;;;20.10;99.90;;;;;;5042135;28;20256;-75
2023/07/30 02:08:03;;;;;;;1.80;1.70;;;20.00;99.90;;;;;;5046023;28;20234;-73
2023/07/30 02:10:32;;;;;;;2.30;1.60;;;19.90;99.90;;;;;;5043223;28;20254;-74
2023/07/30 02:12:59;;;;;;;1.80;1.70;;;19.90;99.90;;;;;;5039006;28;20199;-74
2023/07/30 02:15:27;;;;;;;1.70;1.60;;;19.80;99.90;;;;;;5044283;28;20234;-75
2023/07/30 02:17:54;;;;;;;1.85;1.75;;;19.90;99.90;;;;;;5042395;28;20199;-74
2023/07/30 02:20:21;;;;;;;1.60;1.50;;;19.90;99.90;;;;;;5038506;28;20246;-73
2023/07/30 02:22:48;;;;;;;1.60;1.50;;;20.00;99.90;;;;;;5025196;28;20294;-73
2023/07/30 02:25:16;;;;;;;1.73;1.63;;;20.00;99.90;;;;;;5042064;28;20664;-74
2023/07/30 02:27:44;;;;;;;1.83;1.73;;;20.00;99.90;;;;;;5042883;28;20203;-73
2023/07/30 02:30:12;;;;;;;1.70;1.60;;;20.00;99.90;;;;;;5046213;28;20640;-73
2023/07/30 02:32:39;;;;;;;1.90;1.80;;;19.90;99.90;;;;;;5022409;28;20207;-73
2023/07/30 02:35:07;;;;;;;1.45;1.40;;;19.90;99.90;;;;;;5028905;28;20245;-73
2023/07/30 02:37:34;;;;;;;1.90;1.80;;;19.90;99.90;;;;;;5039722;28;20204;-73
2023/07/30 02:40:04;;;;;;;1.80;1.70;;;19.90;99.90;;;;;;5043473;28;20246;-74
2023/07/30 02:42:31;;;;;;;1.90;1.80;;;19.90;99.90;;;;;;5044397;28;20841;-75
2023/07/30 02:45:00;;;;;;;1.65;1.55;;;19.90;99.90;;;;;;5047536;28;20743;-75
2023/07/30 02:47:27;;;;;;;1.52;1.42;;;19.90;99.90;;;;;;5042746;28;20286;-73
2023/07/30 02:49:54;;;;;;;1.90;1.80;;;19.90;99.90;;;;;;5043110;28;20245;-74
2023/07/30 02:52:21;;;;;;;1.70;1.60;;;20.00;99.90;;;;;;5042880;28;20286;-73
2023/07/30 02:54:48;;;;;;;1.80;1.70;;;20.00;99.90;;;;;;5027214;28;20311;-74
2023/07/30 02:57:15;;;;;;;1.73;1.63;;;20.00;99.90;;;;;;5046686;28;20290;-74
2023/07/30 02:59:42;;;;;;;1.80;1.70;;;20.00;99.90;;;;;;5043172;28;20301;-76
2023/07/30 03:02:11;;;;;;;1.80;1.70;;;20.00;99.90;;;;;;5041489;28;20261;-74
2023/07/30 03:04:38;;;;;;;1.50;1.40;;;20.00;99.90;;;;;;5028365;28;20302;-74
2023/07/30 03:07:06;;;;;;;1.60;1.50;;;20.00;99.90;;;;;;5043613;28;20206;-73
2023/07/30 03:09:33;;;;;;;1.83;1.73;;;20.00;99.90;;;;;;5042071;28;20283;-73
2023/07/30 03:12:00;;;;;;;1.73;1.63;;;19.90;99.90;;;;;;5024674;28;20207;-76
2023/07/30 03:14:27;;;;;;;1.80;1.70;;;19.90;99.90;;;;;;5042523;28;20720;-74
2023/07/30 03:16:54;;;;;;;1.98;1.80;;;19.90;99.90;;;;;;5046530;28;20203;-74
2023/07/30 03:19:23;;;;;;;1.80;1.70;;;20.00;99.90;;;;;;5046277;28;20703;-74
2023/07/30 03:21:50;;;;;;;2.03;1.92;;;20.00;99.90;;;;;;5047980;28;20200;-74
2023/07/30 03:24:17;;;;;;;1.75;1.65;;;20.00;99.90;;;;;;5024645;28;20227;-75
2023/07/30 03:26:44;;;;;;;1.63;1.52;;;20.00;99.90;;;;;;5041325;28;20230;-75
2023/07/30 03:29:11;;;;;;;2.03;1.92;;;20.00;99.90;;;;;;5043814;28;20611;-76
2023/07/30 03:31:38;;;;;;;1.92;1.83;;;19.90;99.90;;;;;;5044075;28;20238;-74
2023/07/30 03:36:45;;;;;;;1.52;1.42;;;19.80;99.90;;;;;;5519778;23;20242;-76
2023/07/30 03:39:12;;;;;;;2.00;1.70;;;19.80;99.90;;;;;;5066344;28;20645;-74
2023/07/30 03:41:39;;;;;;;1.92;1.83;;;19.80;99.90;;;;;;5062612;28;20199;-74
2023/07/30 03:44:06;;;;;;;2.00;1.90;;;19.70;99.90;;;;;;5055492;28;20219;-75
2023/07/30 03:46:33;;;;;;;1.75;1.65;;;19.70;99.90;;;;;;5053576;28;20234;-74
2023/07/30 03:49:01;;;;;;;1.75;1.60;;;19.70;99.90;;;;;;5046204;28;20276;-74
2023/07/30 03:51:28;;;;;;;1.83;1.73;;;19.80;99.90;;;;;;5046065;28;20191;-75
2023/07/30 03:59:10;;;;;;;2.28;1.80;;;19.90;99.90;;;;;;5321193;22;20241;-77
2023/07/30 04:01:37;;;;;;;2.53;2.33;;;19.90;99.90;;;;;;5078535;28;20756;-76
2023/07/30 04:04:04;;;;;;;1.98;1.88;;;19.80;99.90;;;;;;5079796;28;20237;-77
2023/07/30 04:06:31;;;;;;;1.67;1.58;;;19.80;99.90;;;;;;5083005;28;20217;-77
2023/07/30 04:08:58;;;;;;;2.15;2.00;;;19.70;99.90;;;;;;5082764;28;20196;-78
2023/07/30 04:11:25;;;;;;;2.10;2.00;;;19.70;99.90;;;;;;5078930;28;20286;-77
2023/07/30 04:13:52;;;;;;;2.10;2.00;;;19.70;99.90;;;;;;5080312;28;20197;-76
2023/07/30 04:16:20;;;;;;;1.73;1.60;;;19.70;99.90;;;;;;5080296;28;20242;-76
2023/07/30 04:18:47;;;;;;;1.98;1.83;;;19.70;99.90;;;;;;5079083;28;20201;-76
2023/07/30 04:21:15;;;;;;;1.88;1.70;;;19.80;99.90;;;;;;5080690;28;20202;-76
2023/07/30 04:23:42;;;;;;;2.08;1.90;;;19.80;99.90;;;;;;5079754;28;20207;-76
2023/07/30 04:26:09;;;;;;;2.60;2.20;;;19.90;99.90;;;;;;5081849;28;20879;-76
2023/07/30 04:28:36;;;;;;;1.98;1.88;;;19.80;99.90;;;;;;5079482;28;20194;-76
2023/07/30 04:31:03;;;;;;;2.03;1.92;;;19.80;99.90;;;;;;5078979;28;20348;-75
2023/07/30 04:33:31;;;;;;;1.80;1.70;;;19.80;99.90;;;;;;5083066;28;20197;-76
2023/07/30 04:35:58;;;;;;;1.90;1.80;;;19.90;99.90;;;;;;5078851;28;20198;-77
2023/07/30 04:38:25;;;;;;;1.90;1.80;;;20.00;99.90;;;;;;5081743;28;20288;-76
2023/07/30 04:40:52;;;;;;;1.63;1.52;;;20.00;99.90;;;;;;5080632;28;20307;-76
2023/07/30 04:43:18;;;;;;;1.88;1.77;;;20.10;99.90;;;;;;5083300;28;20735;-75
2023/07/30 04:45:45;;;;;;;1.90;1.80;;;20.20;99.90;;;;;;5079387;28;20281;-75
2023/07/30 04:48:12;;;;;;;1.63;1.52;;;20.20;99.90;;;;;;5077831;28;20321;-77
2023/07/30 04:50:41;;;;;;;2.15;1.98;;;20.20;99.90;;;;;;5080363;28;20251;-76
2023/07/30 04:53:09;;;;;;;1.80;1.70;;;20.20;99.90;;;;;;5079033;28;20990;-76
2023/07/30 04:55:35;;;;;;;2.00;1.90;;;20.30;99.90;;;;;;5079598;28;20216;-76
2023/07/30 04:58:03;;;;;;;2.05;1.95;;;20.30;99.90;;;;;;5080273;28;20244;-76
2023/07/30 05:00:30;;;;;;;1.90;1.80;;;20.30;99.90;;;;;;5091298;28;21079;-76
2023/07/30 05:02:57;;;;;;;1.83;1.73;;;20.40;99.90;;;;;;5081492;28;20245;-76
2023/07/30 05:05:24;;;;;;;2.08;1.92;;;20.50;99.90;;;;;;5078364;28;20194;-76
2023/07/30 05:07:52;;;;;;;2.22;2.03;;;20.50;99.90;;;;;;5080933;28;20197;-76
2023/07/30 05:10:19;;;;;;;1.80;1.70;;;20.50;99.90;;;;;;5081782;28;20707;-75
2023/07/30 05:12:46;;;;;;;1.90;1.80;;;20.60;99.90;;;;;;5080041;28;20220;-77
2023/07/30 05:15:13;;;;;;;2.05;1.92;;;20.50;99.90;;;;;;5078267;28;20233;-76
2023/07/30 05:17:40;;;;;;;3.80;2.42;;;20.70;99.90;;;;;;5083425;28;20232;-74
2023/07/30 05:20:08;;;;;;;2.20;2.00;;;20.90;99.90;;;;;;5081143;28;20310;-75
2023/07/30 05:22:35;;;;;;;1.95;1.83;;;20.90;99.90;;;;;;5083993;28;20808;-77
2023/07/30 05:25:04;;;;;;;2.10;2.00;;;21.00;99.90;;;;;;5079569;28;20237;-76
2023/07/30 05:27:31;;;;;;;1.80;1.70;;;21.20;99.90;;;;;;5082598;28;20201;-75
2023/07/30 05:29:58;;;;;;;2.47;2.10;;;21.50;99.90;;;;;;5080003;28;20284;-75
2023/07/30 05:32:26;;;;;;;1.75;1.65;;;21.80;99.90;;;;;;5086365;28;20610;-76
2023/07/30 05:34:53;;;;;;;2.33;1.92;;;22.10;99.90;;;;;;5090057;28;20279;-76
2023/07/30 05:37:20;;;;;;;2.33;2.13;;;22.20;99.90;;;;;;5089609;28;21097;-76
2023/07/30 05:39:47;;;;;;;2.08;1.98;;;22.20;99.90;;;;;;5082890;28;20214;-76
2023/07/30 05:42:15;;;;;;;2.92;2.70;;;22.30;99.90;;;;;;5079235;28;20312;-75
2023/07/30 05:44:42;;;;;;;2.42;2.22;;;22.40;99.90;;;;;;5080799;28;20292;-76
2023/07/30 05:47:09;;;;;;;2.67;2.47;;;22.20;99.90;;;;;;5080377;28;20204;-76
2023/07/30 05:49:36;;;;;;;4.65;3.00;;;21.80;99.90;;;;;;5080615;28;20190;-77
2023/07/30 05:52:04;;;;;;;10.48;3.50;;;21.30;99.90;;;;;;5080213;28;20317;-76
2023/07/30 05:54:31;;;;;;;2.78;2.58;;;20.90;99.90;;;;;;5081452;28;20254;-76
2023/07/30 05:56:58;;;;;;;2.42;2.30;;;20.60;99.90;;;;;;5080607;28;20290;-76
2023/07/30 05:59:26;;;;;;;2.60;2.40;;;20.30;99.90;;;;;;5084466;28;20256;-76
2023/07/30 06:01:53;;;;;;;2.58;2.40;;;20.10;99.90;;;;;;5083600;28;20589;-75
2023/07/30 06:04:20;;;;;;;3.00;2.72;;;19.90;99.90;;;;;;5084773;28;20718;-76
2023/07/30 06:06:47;;;;;;;3.10;2.80;;;19.70;99.90;;;;;;5083131;28;20259;-76
2023/07/30 06:09:13;;;;;;;2.95;2.70;;;19.50;99.90;;;;;;5086681;28;20248;-76
2023/07/30 06:11:40;;;;;;;2.90;2.70;;;19.50;99.90;;;;;;5085869;28;20345;-76
2023/07/30 06:14:07;;;;;;;3.10;2.90;;;19.40;99.90;;;;;;5079475;28;20251;-76
2023/07/30 06:16:36;;;;;;;2.55;2.40;;;19.40;99.90;;;;;;5084437;28;20194;-76
2023/07/30 06:19:03;;;;;;;2.63;2.40;;;19.40;99.90;;;;;;5084536;28;20294;-77
2023/07/30 06:21:30;;;;;;;3.50;3.20;;;19.40;99.90;;;;;;5083584;28;20726;-76
2023/07/30 06:23:57;;;;;;;2.83;2.63;;;19.50;99.90;;;;;;5082527;28;20281;-78
2023/07/30 06:26:23;;;;;;;2.35;2.22;;;19.60;99.90;;;;;;5082468;28;20294;-76
2023/07/30 06:28:50;;;;;;;2.28;2.10;;;19.70;99.90;;;;;;5081646;28;20217;-75
2023/07/30 06:31:17;;;;;;;2.78;2.42;;;19.90;99.90;;;;;;5084100;28;20280;-76
2023/07/30 06:33:46;;;;;;;6.68;2.45;;;20.10;99.90;;;;;;5084380;28;20220;-74
2023/07/30 06:36:13;;;;;;;2.53;2.33;;;20.40;99.90;;;;;;5080404;28;20237;-75
2023/07/30 06:38:39;;;;;;;2.65;2.45;;;20.70;99.90;;;;;;5080143;28;20680;-75
2023/07/30 06:41:06;;;;;;;2.90;2.70;;;20.80;99.90;;;;;;5079301;28;20343;-75
2023/07/30 06:43:33;;;;;;;3.97;2.83;;;21.00;99.90;;;;;;5081654;28;20678;-75
2023/07/30 06:46:00;;;;;;;2.10;2.00;;;21.10;99.90;;;;;;5080772;28;20288;-75
2023/07/30 06:48:27;;;;;;;2.85;2.63;;;21.20;99.90;;;;;;5083023;28;20205;-74
2023/07/30 06:50:55;;;;;;;3.05;2.35;;;21.20;99.90;;;;;;5081409;28;20296;-74
2023/07/30 06:53:22;;;;;;;2.53;2.10;;;21.10;99.90;;;;;;5082859;28;20320;-78
2023/07/30 06:55:49;;;;;;;3.20;2.67;;;21.20;99.90;;;;;;5086322;28;20243;-75
2023/07/30 06:58:16;;;;;;;2.63;2.42;;;21.20;99.90;;;;;;5085830;28;20201;-75
2023/07/30 07:00:43;;;;;;;2.20;2.10;;;21.30;99.90;;;;;;5078513;28;20226;-74
2023/07/30 07:03:10;;;;;;;2.45;2.25;;;21.40;99.90;;;;;;5084406;28;20312;-75
2023/07/30 07:05:37;;;;;;;2.67;2.47;;;21.50;99.90;;;;;;5084673;28;20198;-74
2023/07/30 07:08:06;;;;;;;2.50;2.30;;;21.60;99.90;;;;;;5080761;28;20297;-76
2023/07/30 07:10:33;;;;;;;3.42;2.30;;;21.70;99.90;;;;;;5081357;28;20216;-74
2023/07/30 07:13:00;;;;;;;2.50;2.30;;;21.80;99.90;;;;;;5081383;28;20214;-77
2023/07/30 07:15:26;;;;;;;6.55;2.10;;;21.90;99.90;;;;;;5084441;28;20284;-74
2023/07/30 07:17:53;;;;;;;1.92;1.83;;;22.10;99.90;;;;;;5081865;28;20350;-76
2023/07/30 07:20:20;;;;;;;1.73;1.63;;;22.60;99.90;;;;;;5076011;28;20740;-76
2023/07/30 07:22:48;;;;;;;2.40;2.20;;;23.30;99.90;;;;;;5078372;28;20266;-76
2023/07/30 07:25:18;;;;;;;2.78;2.25;;;23.50;99.90;;;;;;5077699;28;20709;-73
2023/07/30 07:27:45;;;;;;;2.50;2.30;;;23.60;99.90;;;;;;5081535;28;20197;-76
2023/07/30 07:30:13;;;;;;;2.20;2.00;;;24.00;99.90;;;;;;5078882;28;22747;-74
2023/07/30 07:32:40;;;;;;;2.53;2.33;;;24.50;99.90;;;;;;5078289;28;20214;-74
2023/07/30 07:35:08;;;;;;;3.55;2.92;;;24.60;99.90;;;;;;5078717;28;20216;-75
2023/07/30 07:37:35;;;;;;;2.30;2.10;;;24.20;99.90;;;;;;5079022;28;20285;-74
2023/07/30 07:40:03;;;;;;;2.33;2.22;;;24.00;99.90;;;;;;5077162;28;20213;-75
2023/07/30 07:42:31;;;;;;;2.15;2.00;;;23.80;99.90;;;;;;5078908;28;20661;-75
2023/07/30 07:44:58;;;;;;;2.10;2.00;;;23.90;99.90;;;;;;5076192;28;20625;-74
2023/07/30 07:47:25;;;;;;;2.00;1.90;;;24.20;99.90;;;;;;5083998;28;20711;-74
2023/07/30 07:49:52;;;;;;;2.55;2.38;;;24.40;99.90;;;;;;5080470;28;20290;-75
2023/07/30 07:52:20;;;;;;;2.63;2.42;;;24.40;99.90;;;;;;5082239;28;20880;-73
2023/07/30 07:54:47;;;;;;;2.72;2.53;;;24.00;99.90;;;;;;5079255;28;20213;-74
2023/07/30 07:57:14;;;;;;;2.88;2.65;;;23.60;99.90;;;;;;5081063;28;20210;-76
2023/07/30 07:59:44;;;;;;;2.67;2.50;;;23.40;99.90;;;;;;5081213;28;20885;-74
2023/07/30 08:02:11;;;;;;;3.08;2.60;;;23.40;99.90;;;;;;5082933;28;20217;-72
2023/07/30 08:04:40;;;;;;;2.70;2.50;;;23.60;99.90;;;;;;5077731;28;20747;-74
2023/07/30 08:07:07;;;;;;;2.60;2.40;;;23.90;99.90;;;;;;5079206;28;20222;-73
2023/07/30 08:09:34;;;;;;;2.55;2.35;;;24.20;99.90;;;;;;5080137;28;20244;-74
2023/07/30 08:12:01;;;;;;;2.85;2.65;;;24.40;99.90;;;;;;5075113;28;20329;-73
2023/07/30 08:14:28;;;;;;;2.38;2.15;;;24.50;99.90;;;;;;5079619;28;20228;-74
2023/07/30 08:16:56;;;;;;;3.90;2.58;;;24.60;99.90;;;;;;5075976;28;20691;-73
2023/07/30 08:19:23;;;;;;;3.15;2.85;;;24.50;99.90;;;;;;5076709;28;20221;-74
2023/07/30 08:21:50;;;;;;;2.88;2.58;;;24.50;99.90;;;;;;5076829;28;20252;-73
2023/07/30 08:24:17;;;;;;;3.75;2.40;;;24.50;99.90;;;;;;5078740;28;20311;-73
2023/07/30 08:26:46;;;;;;;2.60;2.40;;;24.50;99.90;;;;;;5078320;28;20225;-72
2023/07/30 08:29:13;;;;;;;2.50;2.30;;;24.50;99.90;;;;;;5081133;28;20237;-73
2023/07/30 08:31:41;;;;;;;2.80;2.60;;;24.70;99.90;;;;;;5078493;28;20214;-74
2023/07/30 08:34:09;;;;;;;2.30;2.10;;;24.80;99.90;;;;;;5079289;28;20254;-73
2023/07/30 08:36:36;;;;;;;3.10;2.80;;;25.00;99.90;;;;;;5078177;28;20432;-74
2023/07/30 08:39:04;;;;;;;3.35;2.65;;;25.00;99.90;;;;;;5079559;28;20230;-72
2023/07/30 08:41:31;;;;;;;2.55;2.35;;;25.10;99.90;;;;;;5078556;28;20684;-73
2023/07/30 08:43:58;;;;;;;2.47;2.30;;;25.20;99.90;;;;;;5076648;28;20251;-73
2023/07/30 08:46:25;;;;;;;2.80;2.55;;;25.40;99.90;;;;;;5075577;28;20208;-73
2023/07/30 08:48:52;;;;;;;2.65;2.45;;;25.50;99.90;;;;;;5077323;28;20547;-75
2023/07/30 08:51:22;;;;;;;2.47;2.28;;;25.70;99.90;;;;;;5074100;28;20214;-73
2023/07/30 08:53:50;;;;;;;2.67;2.47;;;25.80;99.90;;;;;;5076355;28;20719;-73
2023/07/30 08:56:17;;;;;;;2.55;2.35;;;25.70;99.90;;;;;;5075841;28;20319;-75
2023/07/30 08:58:45;;;;;;;2.53;2.33;;;25.90;99.90;;;;;;5078598;28;20201;-73
2023/07/30 09:01:13;;;;;;;5.22;2.78;;;25.90;99.90;;;;;;5078669;28;20214;-74
2023/07/30 09:03:41;;;;;;;2.72;2.53;;;26.00;99.90;;;;;;5077184;28;20205;-73
2023/07/30 09:06:08;;;;;;;3.08;2.78;;;26.00;99.90;;;;;;5074755;28;20297;-72
2023/07/30 09:08:36;;;;;;;2.40;2.20;;;26.00;99.90;;;;;;5077213;28;20258;-73
2023/07/30 09:11:09;;;;;;;3.15;2.75;;;26.10;99.90;;;;;;5073751;28;20278;-74
2023/07/30 09:13:41;;;;;;;2.95;2.70;;;26.10;99.90;;;;;;5076837;28;20197;-72
2023/07/30 09:16:12;;;;;;;2.92;2.72;;;26.20;99.90;;;;;;5075440;28;20664;-72
2023/07/30 09:18:43;;;;;;;2.95;2.30;;;26.20;99.90;;;;;;5096278;28;20221;-74
2023/07/30 09:21:11;;;;;;;2.80;2.60;;;26.10;99.90;;;;;;5097581;28;20250;-72
2023/07/30 09:23:44;;;;;;;2.40;2.20;;;26.30;99.90;;;;;;5098772;28;20273;-72
2023/07/30 09:26:11;;;;;;;2.80;2.60;;;26.50;99.90;;;;;;5077827;28;20190;-73
2023/07/30 09:28:38;;;;;;;2.95;2.58;;;26.60;99.90;;;;;;5075367;28;20285;-72
2023/07/30 09:31:07;;;;;;;2.13;2.03;;;26.60;99.90;;;;;;5075035;28;20716;-73
2023/07/30 09:33:34;;;;;;;2.55;2.35;;;26.60;99.90;;;;;;5069559;28;20247;-73
2023/07/30 09:36:02;;;;;;;2.75;2.47;;;26.60;99.90;;;;;;5070897;28;20232;-73
2023/07/30 09:38:30;;;;;;;2.53;2.30;;;26.60;99.90;;;;;;5072757;28;20209;-74
2023/07/30 09:41:03;;;;;;;3.50;2.38;;;26.50;99.90;;;;;;5076159;28;20245;-74
2023/07/30 09:43:31;;;;;;;2.47;2.28;;;26.50;99.90;;;;;;5072903;28;20198;-74
2023/07/30 09:46:02;;;;;;;2.92;2.25;;;26.60;99.90;;;;;;5069531;28;20193;-72
2023/07/30 09:48:31;;;;;;;2.08;1.98;;;26.70;99.90;;;;;;5052182;28;20205;-73
2023/07/30 09:51:02;;;;;;;2.60;2.40;;;26.80;99.90;;;;;;5049597;28;20194;-72
2023/07/30 09:53:34;;;;;;;2.85;2.05;;;27.00;99.90;;;;;;5062275;28;20243;-73
2023/07/30 09:56:02;;;;;;;2.17;2.08;;;27.10;99.90;;;;;;5074196;28;20212;-73
2023/07/30 09:58:29;;;;;;;2.50;2.30;;;27.40;99.90;;;;;;5073484;28;20691;-73
2023/07/30 10:00:59;;;;;;;2.88;2.20;;;27.50;99.90;;;;;;5070200;28;20213;-74
2023/07/30 10:03:27;;;;;;;2.50;2.30;;;27.50;99.90;;;;;;5074073;28;20225;-74
2023/07/30 10:05:57;;;;;;;2.50;2.30;;;27.50;99.90;;;;;;5077027;28;20205;-73
2023/07/30 10:08:27;;;;;;;2.60;2.30;;;27.50;99.90;;;;;;5070770;28;20698;-74
2023/07/30 10:10:56;;;;;;;3.22;2.45;;;27.50;99.90;;;;;;5072447;28;20202;-73
2023/07/30 10:13:25;;;;;;;2.42;2.22;;;27.30;99.90;;;;;;5076241;28;20256;-74
2023/07/30 10:15:52;;;;;;;2.80;2.60;;;27.40;99.90;;;;;;5069677;28;20290;-74
2023/07/30 10:18:20;;;;;;;2.35;2.20;;;27.60;99.90;;;;;;5073419;28;20297;-73
2023/07/30 10:20:54;;;;;;;3.00;2.40;;;27.70;99.90;;;;;;5067205;28;20206;-74
2023/07/30 10:23:21;;;;;;;2.58;2.38;;;27.70;99.90;;;;;;5069724;28;20228;-73
2023/07/30 10:25:51;;;;;;;2.67;1.98;;;27.70;99.90;;;;;;5074170;28;20263;-75
2023/07/30 10:28:33;;;;;;;2.53;2.33;;;27.90;99.90;;;;;;5071954;28;20197;-73
2023/07/30 10:31:03;;;;;;;2.72;2.53;;;28.00;99.90;;;;;;5072027;28;20214;-74
2023/07/30 10:33:46;;;;;;;2.67;2.47;;;28.00;99.90;;;;;;5074731;28;21165;-74
2023/07/30 10:36:13;;;;;;;2.65;2.45;;;28.00;99.90;;;;;;5074256;28;20229;-73
2023/07/30 10:38:41;;;;;;;2.33;2.20;;;28.00;99.90;;;;;;5073587;28;20208;-75
2023/07/30 10:41:10;;;;;;;2.50;2.30;;;28.10;99.90;;;;;;5077004;28;20229;-73
2023/07/30 10:43:41;;;;;;;2.83;2.20;;;28.10;99.90;;;;;;5078035;28;20221;-74
2023/07/30 10:46:09;;;;;;;2.40;2.20;;;28.20;99.90;;;;;;5075696;28;20201;-74
2023/07/30 10:48:37;;;;;;;2.40;2.25;;;28.20;99.90;;;;;;5076189;28;20639;-74
2023/07/30 10:51:07;;;;;;;2.00;1.90;;;28.30;99.90;;;;;;5075259;28;20603;-74
2023/07/30 10:53:36;;;;;;;2.22;2.13;;;28.20;99.90;;;;;;5077983;28;20289;-74
2023/07/30 10:56:05;;;;;;;2.20;2.10;;;28.20;99.90;;;;;;5075106;28;20209;-74
2023/07/30 10:58:33;;;;;;;4.10;2.33;;;28.20;99.90;;;;;;5074703;28;20634;-73
2023/07/30 11:01:03;;;;;;;2.97;2.17;;;28.20;99.90;;;;;;5078011;28;20266;-73
2023/07/30 11:03:31;;;;;;;2.22;2.13;;;28.20;99.90;;;;;;5074412;28;20206;-75
2023/07/30 11:05:59;;;;;;;2.28;2.00;;;28.30;99.90;;;;;;5076482;28;20197;-73
2023/07/30 11:08:34;;;;;;;2.15;1.95;;;28.60;99.90;;;;;;5074411;28;20206;-75
2023/07/30 11:11:01;;;;;;;2.03;1.92;;;28.40;99.90;;;;;;5071839;28;20213;-75
2023/07/30 11:13:28;;;;;;;2.15;2.00;;;28.00;99.90;;;;;;5076400;28;20222;-74
2023/07/30 11:15:55;;;;;;;2.08;1.98;;;28.00;99.90;;;;;;5078066;28;20229;-75
2023/07/30 11:18:23;;;;;;;2.03;1.92;;;28.40;99.90;;;;;;5073245;28;20229;-75
2023/07/30 11:20:51;;;;;;;1.88;1.77;;;28.60;99.90;;;;;;5075883;28;20230;-77
2023/07/30 11:23:19;;;;;;;1.92;1.83;;;28.70;99.90;;;;;;5074837;28;20221;-74
2023/07/30 11:25:50;;;;;;;2.42;2.22;;;28.70;99.90;;;;;;5072311;28;20689;-75
2023/07/30 11:28:33;;;;;;;1.92;1.83;;;28.90;99.90;;;;;;5075361;28;20212;-75
2023/07/30 11:31:01;;;;;;;2.40;2.13;;;29.20;99.90;;;;;;5077336;28;20244;-74
2023/07/30 11:33:30;;;;;;;2.00;1.90;;;29.20;99.90;;;;;;5077319;28;20221;-74
2023/07/30 11:35:57;;;;;;;2.15;2.03;;;29.30;99.90;;;;;;5079724;28;20829;-73
2023/07/30 11:38:25;;;;;;;5.95;2.13;;;29.00;99.90;;;;;;5074956;28;20225;-76
2023/07/30 11:40:52;;;;;;;2.40;2.20;;;28.70;99.90;;;;;;5078108;28;20723;-74
2023/07/30 11:43:20;;;;;;;2.40;2.20;;;28.30;99.90;;;;;;5077592;28;20475;-74
2023/07/30 11:45:47;;;;;;;2.30;2.13;;;28.00;99.90;;;;;;5078754;28;20201;-73
2023/07/30 11:48:15;;;;;;;2.42;2.22;;;27.90;99.90;;;;;;5075336;28;20217;-74
2023/07/30 11:50:50;;;;;;;1.83;1.73;;;27.90;99.90;;;;;;5078122;28;20221;-74
2023/07/30 11:53:18;;;;;;;2.33;1.80;;;28.10;99.90;;;;;;5076026;28;20274;-75
2023/07/30 11:55:46;;;;;;;2.03;1.92;;;28.10;99.90;;;;;;5076781;28;20255;-75
2023/07/30 11:58:14;;;;;;;2.03;1.88;;;28.10;99.90;;;;;;5078553;28;20213;-77
2023/07/30 12:00:41;;;;;;;1.90;1.80;;;28.70;99.90;;;;;;5072813;28;20225;-75
2023/07/30 12:03:12;;;;;;;2.55;1.85;;;29.20;99.90;;;;;;5073317;28;20245;-72
2023/07/30 12:05:39;;;;;;;2.00;1.90;;;29.30;99.90;;;;;;5073877;28;20202;-74
2023/07/30 12:08:17;;;;;;;1.50;1.40;;;29.10;99.90;;;;;;5075324;28;20202;-75
2023/07/30 12:10:45;;;;;;;1.60;1.50;;;29.20;99.90;;;;;;5079227;28;20210;-72
2023/07/30 12:13:17;;;;;;;1.83;1.73;;;29.20;99.90;;;;;;5080865;28;20305;-74
2023/07/30 12:15:51;;;;;;;2.20;1.98;;;29.10;99.90;;;;;;5077988;28;20216;-74
2023/07/30 12:18:18;;;;;;;2.13;2.00;;;28.90;99.90;;;;;;5082277;28;20205;-75
2023/07/30 12:20:45;;;;;;;2.55;1.80;;;28.80;99.90;;;;;;5082243;28;20233;-76
2023/07/30 12:23:14;;;;;;;2.03;1.80;;;28.80;99.90;;;;;;5076578;28;20296;-74
2023/07/30 12:25:41;;;;;;;1.92;1.83;;;28.80;99.90;;;;;;5073880;28;20274;-73
2023/07/30 12:28:08;;;;;;;1.77;1.67;;;28.70;99.90;;;;;;5077961;28;20233;-75
2023/07/30 12:30:36;;;;;;;2.03;1.83;;;28.60;99.90;;;;;;5075677;28;20868;-75
2023/07/30 12:33:03;;;;;;;1.70;1.60;;;28.90;99.90;;;;;;5079254;28;20222;-74
2023/07/30 12:35:30;;;;;;;1.70;1.60;;;29.00;99.90;;;;;;5078005;28;20890;-75
2023/07/30 12:37:58;;;;;;;2.08;1.98;;;29.10;99.90;;;;;;5079085;28;20285;-74
2023/07/30 12:40:26;;;;;;;2.28;1.65;;;29.40;99.90;;;;;;5077780;28;20851;-75
2023/07/30 12:42:53;;;;;;;1.70;1.60;;;29.70;99.90;;;;;;5080538;28;20850;-75
2023/07/30 12:45:20;;;;;;;1.50;1.40;;;29.80;99.90;;;;;;5079584;28;20209;-76
2023/07/30 12:47:47;;;;;;;1.70;1.60;;;30.00;99.90;;;;;;5078327;28;20229;-75
2023/07/30 12:50:14;;;;;;;1.60;1.50;;;30.30;99.90;;;;;;5079195;28;20197;-74
2023/07/30 12:52:41;;;;;;;1.60;1.50;;;30.30;99.90;;;;;;5078541;28;20759;-74
2023/07/30 12:55:08;;;;;;;1.80;1.70;;;30.20;99.90;;;;;;5082659;28;20201;-75
2023/07/30 12:57:36;;;;;;;1.73;1.63;;;30.20;99.90;;;;;;5082163;28;20296;-74
2023/07/30 13:00:04;;;;;;;1.73;1.50;;;30.20;99.90;;;;;;5082067;28;20313;-76